sensor_id;sensor_type;location;lat;lon;timestamp;temperature;humidity
14349;DHT22;7258;50.376;8.742;2023-03-14T00:01:14;9.70;99.90
14349;DHT22;7258;50.376;8.742;2023-03-14T00:03:18;9.70;99.90
14349;DHT22;7258;50.376;8.742;2023-03-14T00:05:21;9.70;99.90
14349;DHT22;7258;50.376;8.742;2023-03-14T00:07:23;9.80;99.90
14349;DHT22;7258;50.376;8.742;2023-03-14T00:09:26;9.80;99.90
14349;DHT22;7258;50.376;8.742;2023-03-14T00:11:32;9.80;99.90
14349;DHT22;7258;50.376;8.742;2023-03-14T00:13:35;9.80;99.90
14349;DHT22;7258;50.376;8.742;2023-03-14T00:15:38;9.80;99.90
14349;DHT22;7258;50.376;8.742;2023-03-14T00:17:43;9.80;99.90
14349;DHT22;7258;50.376;8.742;2023-03-14T00:19:46;9.80;99.90
14349;DHT22;7258;50.376;8.742;2023-03-14T00:21:48;9.90;99.90
14349;DHT22;7258;50.376;8.742;2023-03-14T00:23:51;9.90;99.90
14349;DHT22;7258;50.376;8.742;2023-03-14T00:25:59;9.90;99.90
14349;DHT22;7258;50.376;8.742;2023-03-14T00:28:04;9.90;99.90
14349;DHT22;7258;50.376;8.742;2023-03-14T00:30:07;9.90;99.90
14349;DHT22;7258;50.376;8.742;2023-03-14T00:32:10;9.90;99.90
14349;DHT22;7258;50.376;8.742;2023-03-14T00:34:13;9.90;99.90
14349;DHT22;7258;50.376;8.742;2023-03-14T00:36:17;9.80;99.90
14349;DHT22;7258;50.376;8.742;2023-03-14T00:38:22;9.80;99.90
14349;DHT22;7258;50.376;8.742;2023-03-14T00:40:25;9.80;99.90
14349;DHT22;7258;50.376;8.742;2023-03-14T00:42:28;9.80;99.90
14349;DHT22;7258;50.376;8.742;2023-03-14T00:44:32;9.80;99.90
14349;DHT22;7258;50.376;8.742;2023-03-14T00:46:35;9.80;99.90
14349;DHT22;7258;50.376;8.742;2023-03-14T00:48:41;9.80;99.90
14349;DHT22;7258;50.376;8.742;2023-03-14T00:50:44;9.80;99.90
14349;DHT22;7258;50.376;8.742;2023-03-14T00:52:47;9.80;99.90
14349;DHT22;7258;50.376;8.742;2023-03-14T00:54:50;9.80;99.90
14349;DHT22;7258;50.376;8.742;2023-03-14T00:56:53;9.80;99.90
14349;DHT22;7258;50.376;8.742;2023-03-14T00:58:56;9.70;99.90
14349;DHT22;7258;50.376;8.742;2023-03-14T01:01:05;9.70;99.90
14349;DHT22;7258;50.376;8.742;2023-03-14T01:03:09;9.70;99.90
14349;DHT22;7258;50.376;8.742;2023-03-14T01:05:12;9.70;99.90
14349;DHT22;7258;50.376;8.742;2023-03-14T01:07:15;9.70;99.90
14349;DHT22;7258;50.376;8.742;2023-03-14T01:09:19;9.70;99.90
14349;DHT22;7258;50.376;8.742;2023-03-14T01:11:23;9.70;99.90
14349;DHT22;7258;50.376;8.742;2023-03-14T01:13:27;9.60;99.90
14349;DHT22;7258;50.376;8.742;2023-03-14T01:15:31;9.60;99.90
14349;DHT22;7258;50.376;8.742;2023-03-14T01:17:35;9.50;99.90
14349;DHT22;7258;50.376;8.742;2023-03-14T01:19:39;9.50;99.90
14349;DHT22;7258;50.376;8.742;2023-03-14T01:21:42;9.50;99.90
14349;DHT22;7258;50.376;8.742;2023-03-14T01:23:45;9.40;99.90
14349;DHT22;7258;50.376;8.742;2023-03-14T01:25:49;9.40;99.90
14349;DHT22;7258;50.376;8.742;2023-03-14T01:27:51;9.40;99.90
14349;DHT22;7258;50.376;8.742;2023-03-14T01:29:54;9.40;99.90
14349;DHT22;7258;50.376;8.742;2023-03-14T01:31:57;9.40;99.90
14349;DHT22;7258;50.376;8.742;2023-03-14T01:34:01;9.40;99.90
14349;DHT22;7258;50.376;8.742;2023-03-14T01:36:05;9.40;99.90
14349;DHT22;7258;50.376;8.742;2023-03-14T01:38:08;9.40;99.90
14349;DHT22;7258;50.376;8.742;2023-03-14T01:40:11;9.40;99.90
14349;DHT22;7258;50.376;8.742;2023-03-14T01:42:17;9.50;99.90
14349;DHT22;7258;50.376;8.742;2023-03-14T01:44:20;9.50;99.90
14349;DHT22;7258;50.376;8.742;2023-03-14T01:46:34;9.50;99.90
14349;DHT22;7258;50.376;8.742;2023-03-14T01:48:42;9.50;99.90
14349;DHT22;7258;50.376;8.742;2023-03-14T01:50:46;9.60;99.90
14349;DHT22;7258;50.376;8.742;2023-03-14T01:52:50;9.60;99.90
14349;DHT22;7258;50.376;8.742;2023-03-14T01:54:56;9.60;99.90
14349;DHT22;7258;50.376;8.742;2023-03-14T01:57:05;9.60;99.90
14349;DHT22;7258;50.376;8.742;2023-03-14T01:59:10;9.60;99.90
14349;DHT22;7258;50.376;8.742;2023-03-14T02:01:15;9.70;99.90
14349;DHT22;7258;50.376;8.742;2023-03-14T02:03:20;9.70;99.90
14349;DHT22;7258;50.376;8.742;2023-03-14T02:05:27;9.70;99.90
14349;DHT22;7258;50.376;8.742;2023-03-14T02:07:35;9.70;99.90
14349;DHT22;7258;50.376;8.742;2023-03-14T02:09:40;9.70;99.90
14349;DHT22;7258;50.376;8.742;2023-03-14T02:11:44;9.70;99.90
14349;DHT22;7258;50.376;8.742;2023-03-14T02:13:48;9.60;99.90
14349;DHT22;7258;50.376;8.742;2023-03-14T02:15:52;9.60;99.90
14349;DHT22;7258;50.376;8.742;2023-03-14T02:17:55;9.60;99.90
14349;DHT22;7258;50.376;8.742;2023-03-14T02:20:11;9.50;99.90
14349;DHT22;7258;50.376;8.742;2023-03-14T02:22:16;9.50;99.90
14349;DHT22;7258;50.376;8.742;2023-03-14T02:24:25;9.50;99.90
14349;DHT22;7258;50.376;8.742;2023-03-14T02:26:34;9.50;99.90
14349;DHT22;7258;50.376;8.742;2023-03-14T02:28:41;9.50;99.90
14349;DHT22;7258;50.376;8.742;2023-03-14T02:30:44;9.50;99.90
14349;DHT22;7258;50.376;8.742;2023-03-14T02:32:49;9.50;99.90
14349;DHT22;7258;50.376;8.742;2023-03-14T02:34:56;9.50;99.90
14349;DHT22;7258;50.376;8.742;2023-03-14T02:37:00;9.60;99.90
14349;DHT22;7258;50.376;8.742;2023-03-14T02:39:09;9.70;99.90
14349;DHT22;7258;50.376;8.742;2023-03-14T02:41:14;9.70;99.90
14349;DHT22;7258;50.376;8.742;2023-03-14T02:43:17;9.70;99.90
14349;DHT22;7258;50.376;8.742;2023-03-14T02:45:41;9.70;99.90
14349;DHT22;7258;50.376;8.742;2023-03-14T02:47:46;9.70;99.90
14349;DHT22;7258;50.376;8.742;2023-03-14T02:49:53;9.70;99.90
14349;DHT22;7258;50.376;8.742;2023-03-14T02:51:59;9.60;99.90
14349;DHT22;7258;50.376;8.742;2023-03-14T02:54:03;9.50;99.90
14349;DHT22;7258;50.376;8.742;2023-03-14T02:56:07;9.40;99.90
14349;DHT22;7258;50.376;8.742;2023-03-14T02:58:10;9.40;99.90
14349;DHT22;7258;50.376;8.742;2023-03-14T03:00:14;9.30;99.90
14349;DHT22;7258;50.376;8.742;2023-03-14T03:02:18;9.20;99.90
14349;DHT22;7258;50.376;8.742;2023-03-14T03:04:21;9.20;99.90
14349;DHT22;7258;50.376;8.742;2023-03-14T03:06:25;9.10;99.90
14349;DHT22;7258;50.376;8.742;2023-03-14T03:08:28;9.10;99.90
14349;DHT22;7258;50.376;8.742;2023-03-14T03:10:32;9.00;99.90
14349;DHT22;7258;50.376;8.742;2023-03-14T03:12:35;8.90;99.90
14349;DHT22;7258;50.376;8.742;2023-03-14T03:14:38;8.90;99.90
14349;DHT22;7258;50.376;8.742;2023-03-14T03:16:40;8.80;99.90
14349;DHT22;7258;50.376;8.742;2023-03-14T03:18:45;8.80;99.90
14349;DHT22;7258;50.376;8.742;2023-03-14T03:20:47;8.70;99.90
14349;DHT22;7258;50.376;8.742;2023-03-14T03:22:50;8.70;99.90
14349;DHT22;7258;50.376;8.742;2023-03-14T03:24:53;8.70;99.90
14349;DHT22;7258;50.376;8.742;2023-03-14T03:26:56;8.70;99.90
14349;DHT22;7258;50.376;8.742;2023-03-14T03:28:59;8.70;99.90
14349;DHT22;7258;50.376;8.742;2023-03-14T03:31:07;8.60;99.90
14349;DHT22;7258;50.376;8.742;2023-03-14T03:33:10;8.60;99.90
14349;DHT22;7258;50.376;8.742;2023-03-14T03:35:15;8.60;99.90
14349;DHT22;7258;50.376;8.742;2023-03-14T03:37:18;8.60;99.90
14349;DHT22;7258;50.376;8.742;2023-03-14T03:39:21;8.60;99.90
14349;DHT22;7258;50.376;8.742;2023-03-14T03:41:23;8.50;99.90
14349;DHT22;7258;50.376;8.742;2023-03-14T03:43:26;8.60;99.90
14349;DHT22;7258;50.376;8.742;2023-03-14T03:45:29;8.60;99.90
14349;DHT22;7258;50.376;8.742;2023-03-14T03:47:32;8.60;99.90
14349;DHT22;7258;50.376;8.742;2023-03-14T03:49:34;8.60;99.90
14349;DHT22;7258;50.376;8.742;2023-03-14T03:51:39;8.60;99.90
14349;DHT22;7258;50.376;8.742;2023-03-14T03:53:42;8.60;99.90
14349;DHT22;7258;50.376;8.742;2023-03-14T03:55:45;8.60;99.90
14349;DHT22;7258;50.376;8.742;2023-03-14T03:57:48;8.60;99.90
14349;DHT22;7258;50.376;8.742;2023-03-14T03:59:51;8.60;99.90
14349;DHT22;7258;50.376;8.742;2023-03-14T04:01:54;8.70;99.90
14349;DHT22;7258;50.376;8.742;2023-03-14T04:03:57;8.70;99.90
14349;DHT22;7258;50.376;8.742;2023-03-14T04:06:00;8.70;99.90
14349;DHT22;7258;50.376;8.742;2023-03-14T04:08:05;8.70;99.90
14349;DHT22;7258;50.376;8.742;2023-03-14T04:10:09;8.80;99.90
14349;DHT22;7258;50.376;8.742;2023-03-14T04:12:12;8.80;99.90
14349;DHT22;7258;50.376;8.742;2023-03-14T04:14:15;8.80;99.90
14349;DHT22;7258;50.376;8.742;2023-03-14T04:16:20;8.90;99.90
14349;DHT22;7258;50.376;8.742;2023-03-14T04:18:23;8.90;99.90
14349;DHT22;7258;50.376;8.742;2023-03-14T04:20:27;8.90;99.90
14349;DHT22;7258;50.376;8.742;2023-03-14T04:22:29;8.90;99.90
14349;DHT22;7258;50.376;8.742;2023-03-14T04:24:34;8.90;99.90
14349;DHT22;7258;50.376;8.742;2023-03-14T04:26:36;9.00;99.90
14349;DHT22;7258;50.376;8.742;2023-03-14T04:28:39;9.00;99.90
14349;DHT22;7258;50.376;8.742;2023-03-14T04:30:42;9.00;99.90
14349;DHT22;7258;50.376;8.742;2023-03-14T04:32:45;9.00;99.90
14349;DHT22;7258;50.376;8.742;2023-03-14T04:34:48;9.10;99.90
14349;DHT22;7258;50.376;8.742;2023-03-14T04:36:51;9.00;99.90
14349;DHT22;7258;50.376;8.742;2023-03-14T04:38:54;9.00;99.90
14349;DHT22;7258;50.376;8.742;2023-03-14T04:40:58;9.00;99.90
14349;DHT22;7258;50.376;8.742;2023-03-14T04:43:02;9.00;99.90
14349;DHT22;7258;50.376;8.742;2023-03-14T04:45:06;9.00;99.90
14349;DHT22;7258;50.376;8.742;2023-03-14T04:47:09;9.00;99.90
14349;DHT22;7258;50.376;8.742;2023-03-14T04:49:12;9.00;99.90
14349;DHT22;7258;50.376;8.742;2023-03-14T04:51:15;9.00;99.90
14349;DHT22;7258;50.376;8.742;2023-03-14T04:53:18;9.00;99.90
14349;DHT22;7258;50.376;8.742;2023-03-14T04:55:21;9.00;99.90
14349;DHT22;7258;50.376;8.742;2023-03-14T04:57:26;9.00;99.90
14349;DHT22;7258;50.376;8.742;2023-03-14T04:59:29;9.00;99.90
14349;DHT22;7258;50.376;8.742;2023-03-14T05:01:32;9.00;99.90
14349;DHT22;7258;50.376;8.742;2023-03-14T05:03:35;9.00;99.90
14349;DHT22;7258;50.376;8.742;2023-03-14T05:05:39;9.00;99.90
14349;DHT22;7258;50.376;8.742;2023-03-14T05:07:42;9.10;99.90
14349;DHT22;7258;50.376;8.742;2023-03-14T05:09:45;9.10;99.90
14349;DHT22;7258;50.376;8.742;2023-03-14T05:11:48;9.10;99.90
14349;DHT22;7258;50.376;8.742;2023-03-14T05:13:52;9.10;99.90
14349;DHT22;7258;50.376;8.742;2023-03-14T05:16:03;9.10;99.90
14349;DHT22;7258;50.376;8.742;2023-03-14T05:18:06;9.10;99.90
14349;DHT22;7258;50.376;8.742;2023-03-14T05:20:10;9.10;99.90
14349;DHT22;7258;50.376;8.742;2023-03-14T05:22:14;9.10;99.90
14349;DHT22;7258;50.376;8.742;2023-03-14T05:24:17;9.10;99.90
14349;DHT22;7258;50.376;8.742;2023-03-14T05:26:20;9.10;99.90
14349;DHT22;7258;50.376;8.742;2023-03-14T05:28:22;9.10;99.90
14349;DHT22;7258;50.376;8.742;2023-03-14T05:30:27;9.10;99.90
14349;DHT22;7258;50.376;8.742;2023-03-14T05:32:32;9.10;99.90
14349;DHT22;7258;50.376;8.742;2023-03-14T05:34:35;9.20;99.90
14349;DHT22;7258;50.376;8.742;2023-03-14T05:36:38;9.20;99.90
14349;DHT22;7258;50.376;8.742;2023-03-14T05:38:41;9.20;99.90
14349;DHT22;7258;50.376;8.742;2023-03-14T05:40:44;9.20;99.90
14349;DHT22;7258;50.376;8.742;2023-03-14T05:42:47;9.20;99.90
14349;DHT22;7258;50.376;8.742;2023-03-14T05:44:50;9.20;99.90
14349;DHT22;7258;50.376;8.742;2023-03-14T05:46:54;9.20;99.90
14349;DHT22;7258;50.376;8.742;2023-03-14T05:48:57;9.20;99.90
14349;DHT22;7258;50.376;8.742;2023-03-14T05:51:00;9.20;99.90
14349;DHT22;7258;50.376;8.742;2023-03-14T05:53:03;9.20;99.90
14349;DHT22;7258;50.376;8.742;2023-03-14T05:55:07;9.20;99.90
14349;DHT22;7258;50.376;8.742;2023-03-14T05:57:10;9.20;99.90
14349;DHT22;7258;50.376;8.742;2023-03-14T05:59:13;9.20;99.90
14349;DHT22;7258;50.376;8.742;2023-03-14T06:01:16;9.20;99.90
14349;DHT22;7258;50.376;8.742;2023-03-14T06:03:20;9.20;99.90
14349;DHT22;7258;50.376;8.742;2023-03-14T06:05:23;9.20;99.90
14349;DHT22;7258;50.376;8.742;2023-03-14T06:07:26;9.20;99.90
14349;DHT22;7258;50.376;8.742;2023-03-14T06:09:29;9.20;99.90
14349;DHT22;7258;50.376;8.742;2023-03-14T06:11:32;9.20;99.90
14349;DHT22;7258;50.376;8.742;2023-03-14T06:13:35;9.20;99.90
14349;DHT22;7258;50.376;8.742;2023-03-14T06:15:38;9.20;99.90
14349;DHT22;7258;50.376;8.742;2023-03-14T06:17:41;9.20;99.90
14349;DHT22;7258;50.376;8.742;2023-03-14T06:19:45;9.30;99.90
14349;DHT22;7258;50.376;8.742;2023-03-14T06:21:48;9.30;99.90
14349;DHT22;7258;50.376;8.742;2023-03-14T06:23:51;9.40;99.90
14349;DHT22;7258;50.376;8.742;2023-03-14T06:25:54;9.40;99.90
14349;DHT22;7258;50.376;8.742;2023-03-14T06:27:57;9.50;99.90
14349;DHT22;7258;50.376;8.742;2023-03-14T06:30:00;9.60;99.90
14349;DHT22;7258;50.376;8.742;2023-03-14T06:32:03;9.60;99.90
14349;DHT22;7258;50.376;8.742;2023-03-14T06:34:06;9.70;99.90
14349;DHT22;7258;50.376;8.742;2023-03-14T06:36:11;9.70;99.90
14349;DHT22;7258;50.376;8.742;2023-03-14T06:38:23;9.70;99.90
14349;DHT22;7258;50.376;8.742;2023-03-14T06:41:03;9.60;99.90
14349;DHT22;7258;50.376;8.742;2023-03-14T06:43:06;9.50;99.90
14349;DHT22;7258;50.376;8.742;2023-03-14T06:45:09;9.40;99.90
14349;DHT22;7258;50.376;8.742;2023-03-14T06:47:12;9.30;99.90
14349;DHT22;7258;50.376;8.742;2023-03-14T06:49:15;9.20;99.90
14349;DHT22;7258;50.376;8.742;2023-03-14T06:51:20;9.10;99.90
14349;DHT22;7258;50.376;8.742;2023-03-14T06:53:23;9.10;99.90
14349;DHT22;7258;50.376;8.742;2023-03-14T06:55:43;9.00;99.90
14349;DHT22;7258;50.376;8.742;2023-03-14T06:57:47;9.00;99.90
14349;DHT22;7258;50.376;8.742;2023-03-14T06:59:50;9.00;99.90
14349;DHT22;7258;50.376;8.742;2023-03-14T07:01:53;8.90;99.90
14349;DHT22;7258;50.376;8.742;2023-03-14T07:03:56;8.90;99.90
14349;DHT22;7258;50.376;8.742;2023-03-14T07:05:59;8.90;99.90
14349;DHT22;7258;50.376;8.742;2023-03-14T07:08:03;8.90;99.90
14349;DHT22;7258;50.376;8.742;2023-03-14T07:10:07;8.90;99.90
14349;DHT22;7258;50.376;8.742;2023-03-14T07:12:11;8.90;99.90
14349;DHT22;7258;50.376;8.742;2023-03-14T07:14:13;9.00;99.90
14349;DHT22;7258;50.376;8.742;2023-03-14T07:16:16;9.00;99.90
14349;DHT22;7258;50.376;8.742;2023-03-14T07:18:19;9.00;99.90
14349;DHT22;7258;50.376;8.742;2023-03-14T07:20:22;9.10;99.90
14349;DHT22;7258;50.376;8.742;2023-03-14T07:22:25;9.10;99.90
14349;DHT22;7258;50.376;8.742;2023-03-14T07:24:29;9.20;99.90
14349;DHT22;7258;50.376;8.742;2023-03-14T07:26:32;9.20;99.90
14349;DHT22;7258;50.376;8.742;2023-03-14T07:28:35;9.30;99.90
14349;DHT22;7258;50.376;8.742;2023-03-14T07:30:38;9.40;99.90
14349;DHT22;7258;50.376;8.742;2023-03-14T07:32:41;9.50;99.90
14349;DHT22;7258;50.376;8.742;2023-03-14T07:34:44;9.60;99.90
14349;DHT22;7258;50.376;8.742;2023-03-14T07:36:47;9.70;99.90
14349;DHT22;7258;50.376;8.742;2023-03-14T07:38:50;9.80;99.90
14349;DHT22;7258;50.376;8.742;2023-03-14T07:40:59;9.80;99.90
14349;DHT22;7258;50.376;8.742;2023-03-14T07:43:02;9.80;99.90
14349;DHT22;7258;50.376;8.742;2023-03-14T07:45:06;9.80;99.90
14349;DHT22;7258;50.376;8.742;2023-03-14T07:47:10;9.80;99.90
14349;DHT22;7258;50.376;8.742;2023-03-14T07:49:13;9.90;99.90
14349;DHT22;7258;50.376;8.742;2023-03-14T07:51:15;10.00;99.90
14349;DHT22;7258;50.376;8.742;2023-03-14T07:53:19;10.10;99.90
14349;DHT22;7258;50.376;8.742;2023-03-14T07:55:21;10.20;99.90
14349;DHT22;7258;50.376;8.742;2023-03-14T07:57:26;10.30;99.90
14349;DHT22;7258;50.376;8.742;2023-03-14T07:59:29;10.50;99.90
14349;DHT22;7258;50.376;8.742;2023-03-14T08:01:31;10.60;99.90
14349;DHT22;7258;50.376;8.742;2023-03-14T08:03:34;10.70;99.90
14349;DHT22;7258;50.376;8.742;2023-03-14T08:05:37;10.70;99.90
14349;DHT22;7258;50.376;8.742;2023-03-14T08:07:41;10.70;99.90
14349;DHT22;7258;50.376;8.742;2023-03-14T08:09:44;10.80;99.90
14349;DHT22;7258;50.376;8.742;2023-03-14T08:11:47;10.80;99.90
14349;DHT22;7258;50.376;8.742;2023-03-14T08:13:51;10.80;99.90
14349;DHT22;7258;50.376;8.742;2023-03-14T08:15:54;10.80;99.90
14349;DHT22;7258;50.376;8.742;2023-03-14T08:17:57;10.80;99.90
14349;DHT22;7258;50.376;8.742;2023-03-14T08:20:00;10.80;99.90
14349;DHT22;7258;50.376;8.742;2023-03-14T08:22:04;10.80;99.90
14349;DHT22;7258;50.376;8.742;2023-03-14T08:24:07;10.90;99.90
14349;DHT22;7258;50.376;8.742;2023-03-14T08:26:10;10.90;99.90
14349;DHT22;7258;50.376;8.742;2023-03-14T08:28:13;10.90;99.90
14349;DHT22;7258;50.376;8.742;2023-03-14T08:30:18;10.90;99.90
14349;DHT22;7258;50.376;8.742;2023-03-14T08:32:21;11.00;99.90
14349;DHT22;7258;50.376;8.742;2023-03-14T08:34:25;11.00;99.90
14349;DHT22;7258;50.376;8.742;2023-03-14T08:36:28;11.20;99.90
14349;DHT22;7258;50.376;8.742;2023-03-14T08:38:32;11.20;99.90
14349;DHT22;7258;50.376;8.742;2023-03-14T08:40:35;11.10;99.90
14349;DHT22;7258;50.376;8.742;2023-03-14T08:42:39;11.10;99.90
14349;DHT22;7258;50.376;8.742;2023-03-14T08:44:42;11.00;99.90
14349;DHT22;7258;50.376;8.742;2023-03-14T08:46:47;10.90;99.90
14349;DHT22;7258;50.376;8.742;2023-03-14T08:48:50;10.90;99.90
14349;DHT22;7258;50.376;8.742;2023-03-14T08:50:52;10.80;99.90
14349;DHT22;7258;50.376;8.742;2023-03-14T08:52:55;10.80;99.90
14349;DHT22;7258;50.376;8.742;2023-03-14T08:55:01;10.80;99.90
14349;DHT22;7258;50.376;8.742;2023-03-14T08:57:04;10.80;99.90
14349;DHT22;7258;50.376;8.742;2023-03-14T08:59:07;10.80;99.90
14349;DHT22;7258;50.376;8.742;2023-03-14T09:01:11;10.90;99.90
14349;DHT22;7258;50.376;8.742;2023-03-14T09:03:15;11.00;99.90
14349;DHT22;7258;50.376;8.742;2023-03-14T09:05:18;11.00;99.90
14349;DHT22;7258;50.376;8.742;2023-03-14T09:07:21;11.10;99.90
14349;DHT22;7258;50.376;8.742;2023-03-14T09:09:24;11.20;99.90
14349;DHT22;7258;50.376;8.742;2023-03-14T09:11:28;11.20;99.90
14349;DHT22;7258;50.376;8.742;2023-03-14T09:13:31;11.30;99.90
14349;DHT22;7258;50.376;8.742;2023-03-14T09:15:34;11.40;99.90
14349;DHT22;7258;50.376;8.742;2023-03-14T09:17:37;11.60;99.90
14349;DHT22;7258;50.376;8.742;2023-03-14T09:19:41;11.60;99.90
14349;DHT22;7258;50.376;8.742;2023-03-14T09:21:44;11.70;99.90
14349;DHT22;7258;50.376;8.742;2023-03-14T09:23:47;11.90;99.90
14349;DHT22;7258;50.376;8.742;2023-03-14T09:25:54;11.90;99.90
14349;DHT22;7258;50.376;8.742;2023-03-14T09:27:57;12.10;99.90
14349;DHT22;7258;50.376;8.742;2023-03-14T09:30:00;12.20;99.90
14349;DHT22;7258;50.376;8.742;2023-03-14T09:32:03;12.20;99.90
14349;DHT22;7258;50.376;8.742;2023-03-14T09:34:06;12.20;99.90
14349;DHT22;7258;50.376;8.742;2023-03-14T09:36:10;12.20;99.90
14349;DHT22;7258;50.376;8.742;2023-03-14T09:38:13;12.20;99.90
14349;DHT22;7258;50.376;8.742;2023-03-14T09:40:18;12.20;99.90
14349;DHT22;7258;50.376;8.742;2023-03-14T09:42:24;12.20;99.90
14349;DHT22;7258;50.376;8.742;2023-03-14T09:44:29;12.20;99.90
14349;DHT22;7258;50.376;8.742;2023-03-14T09:46:37;12.10;99.90
14349;DHT22;7258;50.376;8.742;2023-03-14T09:48:41;12.20;99.90
14349;DHT22;7258;50.376;8.742;2023-03-14T09:50:49;12.20;99.90
14349;DHT22;7258;50.376;8.742;2023-03-14T09:52:57;12.10;99.90
14349;DHT22;7258;50.376;8.742;2023-03-14T09:55:03;12.00;99.90
14349;DHT22;7258;50.376;8.742;2023-03-14T09:57:12;12.00;99.90
14349;DHT22;7258;50.376;8.742;2023-03-14T09:59:16;12.00;99.90
14349;DHT22;7258;50.376;8.742;2023-03-14T10:01:22;12.00;99.90
14349;DHT22;7258;50.376;8.742;2023-03-14T10:03:32;12.10;99.90
14349;DHT22;7258;50.376;8.742;2023-03-14T10:05:35;12.20;99.90
14349;DHT22;7258;50.376;8.742;2023-03-14T10:07:37;12.20;99.90
14349;DHT22;7258;50.376;8.742;2023-03-14T10:09:43;12.20;99.90
14349;DHT22;7258;50.376;8.742;2023-03-14T10:11:46;12.10;99.90
14349;DHT22;7258;50.376;8.742;2023-03-14T10:16:09;11.80;99.90
14349;DHT22;7258;50.376;8.742;2023-03-14T10:18:13;11.80;99.90
14349;DHT22;7258;50.376;8.742;2023-03-14T10:20:31;11.90;99.90
14349;DHT22;7258;50.376;8.742;2023-03-14T10:22:37;11.80;99.90
14349;DHT22;7258;50.376;8.742;2023-03-14T10:24:46;11.70;99.90
14349;DHT22;7258;50.376;8.742;2023-03-14T10:26:51;11.70;99.90
14349;DHT22;7258;50.376;8.742;2023-03-14T10:29:02;11.70;99.90
14349;DHT22;7258;50.376;8.742;2023-03-14T10:31:05;11.70;99.90
14349;DHT22;7258;50.376;8.742;2023-03-14T10:33:10;11.70;99.90
14349;DHT22;7258;50.376;8.742;2023-03-14T10:35:21;11.60;99.90
14349;DHT22;7258;50.376;8.742;2023-03-14T10:37:26;11.40;99.90
14349;DHT22;7258;50.376;8.742;2023-03-14T10:39:35;11.30;99.90
14349;DHT22;7258;50.376;8.742;2023-03-14T10:41:48;11.30;99.90
14349;DHT22;7258;50.376;8.742;2023-03-14T10:43:54;11.10;99.90
14349;DHT22;7258;50.376;8.742;2023-03-14T10:46:01;11.00;99.90
14349;DHT22;7258;50.376;8.742;2023-03-14T10:48:25;11.00;99.90
14349;DHT22;7258;50.376;8.742;2023-03-14T10:50:31;10.90;99.90
14349;DHT22;7258;50.376;8.742;2023-03-14T10:52:34;10.90;99.90
14349;DHT22;7258;50.376;8.742;2023-03-14T10:54:59;10.90;99.90
14349;DHT22;7258;50.376;8.742;2023-03-14T10:57:04;10.90;99.90
14349;DHT22;7258;50.376;8.742;2023-03-14T10:59:12;10.80;99.90
14349;DHT22;7258;50.376;8.742;2023-03-14T11:01:35;10.90;99.90
14349;DHT22;7258;50.376;8.742;2023-03-14T11:03:42;10.90;99.90
14349;DHT22;7258;50.376;8.742;2023-03-14T11:05:49;10.90;99.90
14349;DHT22;7258;50.376;8.742;2023-03-14T11:07:58;10.90;99.90
14349;DHT22;7258;50.376;8.742;2023-03-14T11:10:11;10.90;99.90
14349;DHT22;7258;50.376;8.742;2023-03-14T11:12:36;10.90;99.90
14349;DHT22;7258;50.376;8.742;2023-03-14T11:14:46;10.90;99.90
14349;DHT22;7258;50.376;8.742;2023-03-14T11:16:57;11.00;99.90
14349;DHT22;7258;50.376;8.742;2023-03-14T11:19:36;11.00;99.90
14349;DHT22;7258;50.376;8.742;2023-03-14T11:21:52;11.00;99.90
14349;DHT22;7258;50.376;8.742;2023-03-14T11:26:33;11.10;99.90
14349;DHT22;7258;50.376;8.742;2023-03-14T11:28:40;11.10;99.90
14349;DHT22;7258;50.376;8.742;2023-03-14T11:30:51;11.00;99.90
14349;DHT22;7258;50.376;8.742;2023-03-14T11:32:59;10.90;99.90
14349;DHT22;7258;50.376;8.742;2023-03-14T11:35:13;10.80;99.90
14349;DHT22;7258;50.376;8.742;2023-03-14T11:37:23;10.70;99.90
14349;DHT22;7258;50.376;8.742;2023-03-14T11:39:36;10.70;99.90
14349;DHT22;7258;50.376;8.742;2023-03-14T11:41:42;10.60;99.90
14349;DHT22;7258;50.376;8.742;2023-03-14T11:43:51;10.60;99.90
14349;DHT22;7258;50.376;8.742;2023-03-14T11:46:01;10.60;99.90
14349;DHT22;7258;50.376;8.742;2023-03-14T11:48:25;10.60;99.90
14349;DHT22;7258;50.376;8.742;2023-03-14T11:50:30;10.50;99.90
14349;DHT22;7258;50.376;8.742;2023-03-14T11:52:38;10.50;99.90
14349;DHT22;7258;50.376;8.742;2023-03-14T11:54:48;10.50;99.90
14349;DHT22;7258;50.376;8.742;2023-03-14T11:56:55;10.40;99.90
14349;DHT22;7258;50.376;8.742;2023-03-14T11:59:05;10.40;99.90
14349;DHT22;7258;50.376;8.742;2023-03-14T12:01:10;10.40;99.90
14349;DHT22;7258;50.376;8.742;2023-03-14T12:03:21;10.30;99.90
14349;DHT22;7258;50.376;8.742;2023-03-14T12:05:54;9.50;99.90
14349;DHT22;7258;50.376;8.742;2023-03-14T12:10:37;8.60;99.90
14349;DHT22;7258;50.376;8.742;2023-03-14T12:12:41;8.40;99.90
14349;DHT22;7258;50.376;8.742;2023-03-14T12:14:51;8.30;99.90
14349;DHT22;7258;50.376;8.742;2023-03-14T12:16:56;8.20;99.90
14349;DHT22;7258;50.376;8.742;2023-03-14T12:19:26;8.10;99.90
14349;DHT22;7258;50.376;8.742;2023-03-14T12:21:46;8.10;99.90
14349;DHT22;7258;50.376;8.742;2023-03-14T12:23:51;8.00;99.90
14349;DHT22;7258;50.376;8.742;2023-03-14T12:26:17;7.90;99.90
14349;DHT22;7258;50.376;8.742;2023-03-14T12:28:20;7.80;99.90
14349;DHT22;7258;50.376;8.742;2023-03-14T12:30:28;7.80;99.90
14349;DHT22;7258;50.376;8.742;2023-03-14T12:32:32;7.90;99.90
14349;DHT22;7258;50.376;8.742;2023-03-14T12:34:39;8.10;99.90
14349;DHT22;7258;50.376;8.742;2023-03-14T12:37:04;8.10;99.90
14349;DHT22;7258;50.376;8.742;2023-03-14T12:39:20;8.10;99.90
14349;DHT22;7258;50.376;8.742;2023-03-14T12:41:27;8.00;99.90
14349;DHT22;7258;50.376;8.742;2023-03-14T12:43:32;8.00;99.90
14349;DHT22;7258;50.376;8.742;2023-03-14T12:45:37;8.00;99.90
14349;DHT22;7258;50.376;8.742;2023-03-14T12:47:56;8.00;99.90
14349;DHT22;7258;50.376;8.742;2023-03-14T12:50:07;8.10;99.90
14349;DHT22;7258;50.376;8.742;2023-03-14T12:52:14;8.20;99.90
14349;DHT22;7258;50.376;8.742;2023-03-14T12:54:28;8.20;99.90
14349;DHT22;7258;50.376;8.742;2023-03-14T12:56:59;8.30;99.90
14349;DHT22;7258;50.376;8.742;2023-03-14T13:01:33;8.60;99.90
14349;DHT22;7258;50.376;8.742;2023-03-14T13:03:41;8.80;99.90
14349;DHT22;7258;50.376;8.742;2023-03-14T13:05:53;9.00;99.90
14349;DHT22;7258;50.376;8.742;2023-03-14T13:08:08;9.30;99.90
14349;DHT22;7258;50.376;8.742;2023-03-14T13:10:21;9.30;99.90
14349;DHT22;7258;50.376;8.742;2023-03-14T13:12:28;9.30;99.90
14349;DHT22;7258;50.376;8.742;2023-03-14T13:14:33;9.20;99.90
14349;DHT22;7258;50.376;8.742;2023-03-14T13:16:38;9.20;99.90
14349;DHT22;7258;50.376;8.742;2023-03-14T13:18:42;9.10;99.90
14349;DHT22;7258;50.376;8.742;2023-03-14T13:20:50;9.10;99.90
14349;DHT22;7258;50.376;8.742;2023-03-14T13:22:54;8.90;99.90
14349;DHT22;7258;50.376;8.742;2023-03-14T13:25:01;8.90;99.90
14349;DHT22;7258;50.376;8.742;2023-03-14T13:27:05;8.80;99.90
14349;DHT22;7258;50.376;8.742;2023-03-14T13:29:16;8.70;99.90
14349;DHT22;7258;50.376;8.742;2023-03-14T13:31:22;8.70;99.90
14349;DHT22;7258;50.376;8.742;2023-03-14T13:33:27;8.70;99.90
14349;DHT22;7258;50.376;8.742;2023-03-14T13:35:40;8.80;99.90
14349;DHT22;7258;50.376;8.742;2023-03-14T13:37:44;8.90;99.90
14349;DHT22;7258;50.376;8.742;2023-03-14T13:39:49;8.90;99.90
14349;DHT22;7258;50.376;8.742;2023-03-14T13:41:54;9.00;99.90
14349;DHT22;7258;50.376;8.742;2023-03-14T13:44:02;9.20;99.90
14349;DHT22;7258;50.376;8.742;2023-03-14T13:46:10;9.40;99.90